sensor_id;sensor_type;location;lat;lon;timestamp;temperature;humidity
15983;DHT22;14442;50.196;8.096;2024-02-23T00:02:05;24.40;43.20
15983;DHT22;14442;50.196;8.096;2024-02-23T00:04:32;24.40;43.20
15983;DHT22;14442;50.196;8.096;2024-02-23T00:06:59;24.40;43.30
15983;DHT22;14442;50.196;8.096;2024-02-23T00:09:29;24.40;43.10
15983;DHT22;14442;50.196;8.096;2024-02-23T00:11:56;24.30;42.90
15983;DHT22;14442;50.196;8.096;2024-02-23T00:14:22;24.30;42.90
15983;DHT22;14442;50.196;8.096;2024-02-23T00:16:49;24.30;43.00
15983;DHT22;14442;50.196;8.096;2024-02-23T00:19:15;24.30;42.90
15983;DHT22;14442;50.196;8.096;2024-02-23T00:21:43;24.30;42.90
15983;DHT22;14442;50.196;8.096;2024-02-23T00:24:13;24.30;43.10
15983;DHT22;14442;50.196;8.096;2024-02-23T00:26:43;24.30;43.20
15983;DHT22;14442;50.196;8.096;2024-02-23T00:29:09;24.30;43.10
15983;DHT22;14442;50.196;8.096;2024-02-23T00:31:37;24.30;43.00
15983;DHT22;14442;50.196;8.096;2024-02-23T00:34:03;24.20;43.00
15983;DHT22;14442;50.196;8.096;2024-02-23T00:36:30;24.20;42.90
15983;DHT22;14442;50.196;8.096;2024-02-23T00:38:57;24.20;43.00
15983;DHT22;14442;50.196;8.096;2024-02-23T00:41:23;24.20;43.00
15983;DHT22;14442;50.196;8.096;2024-02-23T00:43:51;24.20;42.90
15983;DHT22;14442;50.196;8.096;2024-02-23T00:46:18;24.20;43.00
15983;DHT22;14442;50.196;8.096;2024-02-23T00:48:44;24.20;43.00
15983;DHT22;14442;50.196;8.096;2024-02-23T00:51:11;24.20;43.10
15983;DHT22;14442;50.196;8.096;2024-02-23T00:53:38;24.10;43.00
15983;DHT22;14442;50.196;8.096;2024-02-23T00:56:05;24.10;43.00
15983;DHT22;14442;50.196;8.096;2024-02-23T00:58:31;24.10;42.90
15983;DHT22;14442;50.196;8.096;2024-02-23T01:00:59;24.10;42.90
15983;DHT22;14442;50.196;8.096;2024-02-23T01:03:26;24.10;42.90
15983;DHT22;14442;50.196;8.096;2024-02-23T01:05:53;24.10;43.00
15983;DHT22;14442;50.196;8.096;2024-02-23T01:08:19;24.00;42.90
15983;DHT22;14442;50.196;8.096;2024-02-23T01:10:46;24.00;42.90
15983;DHT22;14442;50.196;8.096;2024-02-23T01:13:12;24.00;42.90
15983;DHT22;14442;50.196;8.096;2024-02-23T01:15:39;24.00;42.90
15983;DHT22;14442;50.196;8.096;2024-02-23T01:18:07;24.00;42.80
15983;DHT22;14442;50.196;8.096;2024-02-23T01:20:34;24.00;42.80
15983;DHT22;14442;50.196;8.096;2024-02-23T01:23:00;23.90;42.90
15983;DHT22;14442;50.196;8.096;2024-02-23T01:25:27;23.90;42.90
15983;DHT22;14442;50.196;8.096;2024-02-23T01:27:53;23.90;42.60
15983;DHT22;14442;50.196;8.096;2024-02-23T01:30:20;23.90;42.90
15983;DHT22;14442;50.196;8.096;2024-02-23T01:32:47;23.90;42.80
15983;DHT22;14442;50.196;8.096;2024-02-23T01:35:17;23.90;42.90
15983;DHT22;14442;50.196;8.096;2024-02-23T01:37:43;23.90;42.80
15983;DHT22;14442;50.196;8.096;2024-02-23T01:40:10;23.80;42.70
15983;DHT22;14442;50.196;8.096;2024-02-23T01:42:37;23.80;42.70
15983;DHT22;14442;50.196;8.096;2024-02-23T01:45:04;23.80;42.90
15983;DHT22;14442;50.196;8.096;2024-02-23T01:47:31;23.80;42.50
15983;DHT22;14442;50.196;8.096;2024-02-23T01:49:58;23.80;42.60
15983;DHT22;14442;50.196;8.096;2024-02-23T01:52:26;23.70;42.40
15983;DHT22;14442;50.196;8.096;2024-02-23T01:54:53;23.70;42.70
15983;DHT22;14442;50.196;8.096;2024-02-23T01:57:20;23.70;42.90
15983;DHT22;14442;50.196;8.096;2024-02-23T01:59:48;23.70;42.90
15983;DHT22;14442;50.196;8.096;2024-02-23T02:02:15;23.70;42.90
15983;DHT22;14442;50.196;8.096;2024-02-23T02:04:42;23.70;43.00
15983;DHT22;14442;50.196;8.096;2024-02-23T02:07:08;23.70;42.90
15983;DHT22;14442;50.196;8.096;2024-02-23T02:09:36;23.60;42.70
15983;DHT22;14442;50.196;8.096;2024-02-23T02:12:03;23.60;42.80
15983;DHT22;14442;50.196;8.096;2024-02-23T02:14:30;23.60;42.70
15983;DHT22;14442;50.196;8.096;2024-02-23T02:16:58;23.60;42.60
15983;DHT22;14442;50.196;8.096;2024-02-23T02:19:25;23.60;42.90
15983;DHT22;14442;50.196;8.096;2024-02-23T02:21:51;23.60;42.60
15983;DHT22;14442;50.196;8.096;2024-02-23T02:24:18;23.50;42.80
15983;DHT22;14442;50.196;8.096;2024-02-23T02:26:47;23.50;42.70
15983;DHT22;14442;50.196;8.096;2024-02-23T02:29:15;23.50;42.80
15983;DHT22;14442;50.196;8.096;2024-02-23T02:31:42;23.50;42.80
15983;DHT22;14442;50.196;8.096;2024-02-23T02:34:08;23.50;42.90
15983;DHT22;14442;50.196;8.096;2024-02-23T02:36:38;23.50;43.00
15983;DHT22;14442;50.196;8.096;2024-02-23T02:39:04;23.40;42.70
15983;DHT22;14442;50.196;8.096;2024-02-23T02:41:32;23.40;42.80
15983;DHT22;14442;50.196;8.096;2024-02-23T02:44:00;23.40;42.90
15983;DHT22;14442;50.196;8.096;2024-02-23T02:46:27;23.40;42.90
15983;DHT22;14442;50.196;8.096;2024-02-23T02:48:53;23.40;42.60
15983;DHT22;14442;50.196;8.096;2024-02-23T02:51:20;23.40;42.70
15983;DHT22;14442;50.196;8.096;2024-02-23T02:53:47;23.40;42.80
15983;DHT22;14442;50.196;8.096;2024-02-23T02:56:13;23.30;42.70
15983;DHT22;14442;50.196;8.096;2024-02-23T02:58:40;23.30;42.70
15983;DHT22;14442;50.196;8.096;2024-02-23T03:01:08;23.30;42.80
15983;DHT22;14442;50.196;8.096;2024-02-23T03:03:34;23.30;42.70
15983;DHT22;14442;50.196;8.096;2024-02-23T03:06:02;23.30;42.50
15983;DHT22;14442;50.196;8.096;2024-02-23T03:08:29;23.30;42.60
15983;DHT22;14442;50.196;8.096;2024-02-23T03:10:56;23.30;42.60
15983;DHT22;14442;50.196;8.096;2024-02-23T03:13:22;23.30;43.20
15983;DHT22;14442;50.196;8.096;2024-02-23T03:15:49;23.30;42.60
15983;DHT22;14442;50.196;8.096;2024-02-23T03:18:17;23.30;42.70
15983;DHT22;14442;50.196;8.096;2024-02-23T03:20:43;23.20;42.50
15983;DHT22;14442;50.196;8.096;2024-02-23T03:23:10;23.20;42.50
15983;DHT22;14442;50.196;8.096;2024-02-23T03:25:37;23.20;42.50
15983;DHT22;14442;50.196;8.096;2024-02-23T03:28:03;23.20;42.40
15983;DHT22;14442;50.196;8.096;2024-02-23T03:30:30;23.20;42.50
15983;DHT22;14442;50.196;8.096;2024-02-23T03:32:57;23.20;42.80
15983;DHT22;14442;50.196;8.096;2024-02-23T03:35:25;23.20;42.70
15983;DHT22;14442;50.196;8.096;2024-02-23T03:37:51;23.10;42.50
15983;DHT22;14442;50.196;8.096;2024-02-23T03:40:18;23.10;42.60
15983;DHT22;14442;50.196;8.096;2024-02-23T03:42:44;23.10;42.50
15983;DHT22;14442;50.196;8.096;2024-02-23T03:45:11;23.10;42.40
15983;DHT22;14442;50.196;8.096;2024-02-23T03:47:38;23.10;42.50
15983;DHT22;14442;50.196;8.096;2024-02-23T03:50:05;23.10;42.60
15983;DHT22;14442;50.196;8.096;2024-02-23T03:52:33;23.10;42.70
15983;DHT22;14442;50.196;8.096;2024-02-23T03:55:00;23.00;42.50
15983;DHT22;14442;50.196;8.096;2024-02-23T03:57:29;23.00;42.50
15983;DHT22;14442;50.196;8.096;2024-02-23T03:59:57;23.00;42.60
15983;DHT22;14442;50.196;8.096;2024-02-23T04:02:23;23.00;42.50
15983;DHT22;14442;50.196;8.096;2024-02-23T04:04:50;23.00;42.50
15983;DHT22;14442;50.196;8.096;2024-02-23T04:07:17;23.00;42.60
15983;DHT22;14442;50.196;8.096;2024-02-23T04:09:44;23.00;42.60
15983;DHT22;14442;50.196;8.096;2024-02-23T04:12:17;23.00;42.50
15983;DHT22;14442;50.196;8.096;2024-02-23T04:14:44;22.90;42.60
15983;DHT22;14442;50.196;8.096;2024-02-23T04:17:11;22.90;42.50
15983;DHT22;14442;50.196;8.096;2024-02-23T04:19:38;22.90;42.50
15983;DHT22;14442;50.196;8.096;2024-02-23T04:22:05;22.90;42.70
15983;DHT22;14442;50.196;8.096;2024-02-23T04:24:34;22.90;42.80
15983;DHT22;14442;50.196;8.096;2024-02-23T04:27:02;22.90;42.60
15983;DHT22;14442;50.196;8.096;2024-02-23T04:29:29;22.90;42.80
15983;DHT22;14442;50.196;8.096;2024-02-23T04:31:55;22.80;42.60
15983;DHT22;14442;50.196;8.096;2024-02-23T04:34:22;22.80;42.60
15983;DHT22;14442;50.196;8.096;2024-02-23T04:36:48;22.80;42.70
15983;DHT22;14442;50.196;8.096;2024-02-23T04:39:15;22.80;42.80
15983;DHT22;14442;50.196;8.096;2024-02-23T04:41:41;22.80;42.70
15983;DHT22;14442;50.196;8.096;2024-02-23T04:44:10;22.80;42.80
15983;DHT22;14442;50.196;8.096;2024-02-23T04:46:36;22.80;42.60
15983;DHT22;14442;50.196;8.096;2024-02-23T04:49:03;22.70;42.60
15983;DHT22;14442;50.196;8.096;2024-02-23T04:51:30;22.70;42.70
15983;DHT22;14442;50.196;8.096;2024-02-23T04:53:56;22.70;42.70
15983;DHT22;14442;50.196;8.096;2024-02-23T04:56:23;22.70;42.70
15983;DHT22;14442;50.196;8.096;2024-02-23T04:58:50;22.70;42.70
15983;DHT22;14442;50.196;8.096;2024-02-23T05:01:18;22.70;42.70
15983;DHT22;14442;50.196;8.096;2024-02-23T05:03:45;22.70;42.70
15983;DHT22;14442;50.196;8.096;2024-02-23T05:06:11;22.70;42.70
15983;DHT22;14442;50.196;8.096;2024-02-23T05:08:38;22.60;42.80
15983;DHT22;14442;50.196;8.096;2024-02-23T05:11:05;22.60;43.40
15983;DHT22;14442;50.196;8.096;2024-02-23T05:13:31;22.60;42.80
15983;DHT22;14442;50.196;8.096;2024-02-23T05:15:58;22.60;42.80
15983;DHT22;14442;50.196;8.096;2024-02-23T05:18:26;22.60;42.80
15983;DHT22;14442;50.196;8.096;2024-02-23T05:20:52;22.60;42.80
15983;DHT22;14442;50.196;8.096;2024-02-23T05:23:19;22.60;42.80
15983;DHT22;14442;50.196;8.096;2024-02-23T05:25:45;22.60;42.80
15983;DHT22;14442;50.196;8.096;2024-02-23T05:28:12;22.60;42.90
15983;DHT22;14442;50.196;8.096;2024-02-23T05:30:39;22.50;42.80
15983;DHT22;14442;50.196;8.096;2024-02-23T05:33:05;22.50;42.80
15983;DHT22;14442;50.196;8.096;2024-02-23T05:35:33;22.50;42.90
15983;DHT22;14442;50.196;8.096;2024-02-23T05:38:00;22.50;42.90
15983;DHT22;14442;50.196;8.096;2024-02-23T05:40:26;22.50;42.90
15983;DHT22;14442;50.196;8.096;2024-02-23T05:42:53;22.50;42.90
15983;DHT22;14442;50.196;8.096;2024-02-23T05:45:20;22.50;42.90
15983;DHT22;14442;50.196;8.096;2024-02-23T05:47:48;22.40;42.90
15983;DHT22;14442;50.196;8.096;2024-02-23T05:50:14;22.50;43.00
15983;DHT22;14442;50.196;8.096;2024-02-23T05:52:42;22.50;42.90
15983;DHT22;14442;50.196;8.096;2024-02-23T05:55:09;22.50;42.90
15983;DHT22;14442;50.196;8.096;2024-02-23T05:57:36;22.40;42.90
15983;DHT22;14442;50.196;8.096;2024-02-23T06:00:04;22.40;42.90
15983;DHT22;14442;50.196;8.096;2024-02-23T06:02:31;22.40;42.90
15983;DHT22;14442;50.196;8.096;2024-02-23T06:04:57;22.40;42.90
15983;DHT22;14442;50.196;8.096;2024-02-23T06:07:24;22.40;42.90
15983;DHT22;14442;50.196;8.096;2024-02-23T06:09:56;22.40;42.90
15983;DHT22;14442;50.196;8.096;2024-02-23T06:12:22;22.40;42.90
15983;DHT22;14442;50.196;8.096;2024-02-23T06:14:50;22.40;43.50
15983;DHT22;14442;50.196;8.096;2024-02-23T06:17:17;22.40;42.80
15983;DHT22;14442;50.196;8.096;2024-02-23T06:19:44;22.40;42.80
15983;DHT22;14442;50.196;8.096;2024-02-23T06:22:11;22.40;42.90
15983;DHT22;14442;50.196;8.096;2024-02-23T06:24:38;22.40;42.90
15983;DHT22;14442;50.196;8.096;2024-02-23T06:27:06;22.30;42.70
15983;DHT22;14442;50.196;8.096;2024-02-23T06:29:33;22.30;42.80
15983;DHT22;14442;50.196;8.096;2024-02-23T06:32:00;22.30;42.70
15983;DHT22;14442;50.196;8.096;2024-02-23T06:34:28;22.30;42.80
15983;DHT22;14442;50.196;8.096;2024-02-23T06:36:55;22.30;42.70
15983;DHT22;14442;50.196;8.096;2024-02-23T06:39:22;22.30;42.80
15983;DHT22;14442;50.196;8.096;2024-02-23T06:41:48;22.30;42.90
15983;DHT22;14442;50.196;8.096;2024-02-23T06:44:16;22.30;42.90
15983;DHT22;14442;50.196;8.096;2024-02-23T06:46:44;22.30;42.90
15983;DHT22;14442;50.196;8.096;2024-02-23T06:49:10;22.30;42.90
15983;DHT22;14442;50.196;8.096;2024-02-23T06:51:37;22.30;42.70
15983;DHT22;14442;50.196;8.096;2024-02-23T06:54:06;22.20;42.70
15983;DHT22;14442;50.196;8.096;2024-02-23T06:56:33;22.20;42.70
15983;DHT22;14442;50.196;8.096;2024-02-23T06:59:00;22.20;42.90
15983;DHT22;14442;50.196;8.096;2024-02-23T07:01:28;22.20;42.60
15983;DHT22;14442;50.196;8.096;2024-02-23T07:03:56;22.20;42.60
15983;DHT22;14442;50.196;8.096;2024-02-23T07:06:24;22.20;42.50
15983;DHT22;14442;50.196;8.096;2024-02-23T07:08:50;22.20;42.30
15983;DHT22;14442;50.196;8.096;2024-02-23T07:11:17;22.20;42.50
15983;DHT22;14442;50.196;8.096;2024-02-23T07:13:44;22.20;42.50
15983;DHT22;14442;50.196;8.096;2024-02-23T07:16:11;22.20;42.50
15983;DHT22;14442;50.196;8.096;2024-02-23T07:18:40;22.20;42.40
15983;DHT22;14442;50.196;8.096;2024-02-23T07:21:07;22.30;42.40
15983;DHT22;14442;50.196;8.096;2024-02-23T07:23:34;22.30;42.60
15983;DHT22;14442;50.196;8.096;2024-02-23T07:26:00;22.30;42.50
15983;DHT22;14442;50.196;8.096;2024-02-23T07:28:27;22.30;42.60
15983;DHT22;14442;50.196;8.096;2024-02-23T07:30:54;22.30;42.60
15983;DHT22;14442;50.196;8.096;2024-02-23T07:33:21;22.40;42.70
15983;DHT22;14442;50.196;8.096;2024-02-23T07:35:49;22.40;43.30
15983;DHT22;14442;50.196;8.096;2024-02-23T07:38:15;22.40;42.60
15983;DHT22;14442;50.196;8.096;2024-02-23T07:40:43;22.40;42.60
15983;DHT22;14442;50.196;8.096;2024-02-23T07:43:10;22.40;42.60
15983;DHT22;14442;50.196;8.096;2024-02-23T07:45:37;22.40;42.50
15983;DHT22;14442;50.196;8.096;2024-02-23T07:48:04;22.40;42.50
15983;DHT22;14442;50.196;8.096;2024-02-23T07:50:31;22.40;42.50
15983;DHT22;14442;50.196;8.096;2024-02-23T07:52:59;22.50;42.50
15983;DHT22;14442;50.196;8.096;2024-02-23T07:55:26;22.50;42.30
15983;DHT22;14442;50.196;8.096;2024-02-23T07:57:52;22.50;42.40
15983;DHT22;14442;50.196;8.096;2024-02-23T08:00:22;22.50;42.50
15983;DHT22;14442;50.196;8.096;2024-02-23T08:02:49;22.60;42.50
15983;DHT22;14442;50.196;8.096;2024-02-23T08:05:16;22.60;42.40
15983;DHT22;14442;50.196;8.096;2024-02-23T08:07:43;22.60;42.40
15983;DHT22;14442;50.196;8.096;2024-02-23T08:10:12;22.60;42.30
15983;DHT22;14442;50.196;8.096;2024-02-23T08:12:38;22.60;42.40
15983;DHT22;14442;50.196;8.096;2024-02-23T08:15:06;22.60;42.30
15983;DHT22;14442;50.196;8.096;2024-02-23T08:17:33;22.60;42.40
15983;DHT22;14442;50.196;8.096;2024-02-23T08:20:00;22.70;42.40
15983;DHT22;14442;50.196;8.096;2024-02-23T08:22:27;22.70;42.50
15983;DHT22;14442;50.196;8.096;2024-02-23T08:24:54;22.70;42.40
15983;DHT22;14442;50.196;8.096;2024-02-23T08:27:22;22.70;42.20
15983;DHT22;14442;50.196;8.096;2024-02-23T08:29:49;22.70;42.30
15983;DHT22;14442;50.196;8.096;2024-02-23T08:32:16;22.70;42.20
15983;DHT22;14442;50.196;8.096;2024-02-23T08:34:43;22.70;42.10
15983;DHT22;14442;50.196;8.096;2024-02-23T08:37:10;22.80;42.30
15983;DHT22;14442;50.196;8.096;2024-02-23T08:39:37;22.80;42.30
15983;DHT22;14442;50.196;8.096;2024-02-23T08:42:04;22.80;42.20
15983;DHT22;14442;50.196;8.096;2024-02-23T08:44:32;22.80;42.20
15983;DHT22;14442;50.196;8.096;2024-02-23T08:46:59;22.80;42.20
15983;DHT22;14442;50.196;8.096;2024-02-23T08:49:27;22.80;42.20
15983;DHT22;14442;50.196;8.096;2024-02-23T08:51:54;22.90;42.20
15983;DHT22;14442;50.196;8.096;2024-02-23T08:54:21;22.90;42.20
15983;DHT22;14442;50.196;8.096;2024-02-23T08:56:48;22.90;42.20
15983;DHT22;14442;50.196;8.096;2024-02-23T08:59:15;22.90;42.10
15983;DHT22;14442;50.196;8.096;2024-02-23T09:01:43;22.80;42.00
15983;DHT22;14442;50.196;8.096;2024-02-23T09:04:12;22.90;42.10
15983;DHT22;14442;50.196;8.096;2024-02-23T09:06:39;22.90;42.20
15983;DHT22;14442;50.196;8.096;2024-02-23T09:09:06;22.90;42.00
15983;DHT22;14442;50.196;8.096;2024-02-23T09:11:34;22.90;42.00
15983;DHT22;14442;50.196;8.096;2024-02-23T09:14:01;22.90;42.00
15983;DHT22;14442;50.196;8.096;2024-02-23T09:16:28;22.90;41.90
15983;DHT22;14442;50.196;8.096;2024-02-23T09:18:56;22.90;41.90
15983;DHT22;14442;50.196;8.096;2024-02-23T09:21:23;23.00;42.10
15983;DHT22;14442;50.196;8.096;2024-02-23T09:23:49;23.00;42.10
15983;DHT22;14442;50.196;8.096;2024-02-23T09:26:16;23.00;42.10
15983;DHT22;14442;50.196;8.096;2024-02-23T09:28:43;23.00;42.00
15983;DHT22;14442;50.196;8.096;2024-02-23T09:31:10;23.00;42.20
15983;DHT22;14442;50.196;8.096;2024-02-23T09:33:37;23.00;42.20
15983;DHT22;14442;50.196;8.096;2024-02-23T09:36:05;23.00;42.00
15983;DHT22;14442;50.196;8.096;2024-02-23T09:38:32;23.00;42.00
15983;DHT22;14442;50.196;8.096;2024-02-23T09:40:59;23.00;42.00
15983;DHT22;14442;50.196;8.096;2024-02-23T09:43:28;23.00;42.00
15983;DHT22;14442;50.196;8.096;2024-02-23T09:45:56;23.10;42.20
15983;DHT22;14442;50.196;8.096;2024-02-23T09:48:23;23.10;42.00
15983;DHT22;14442;50.196;8.096;2024-02-23T09:50:52;23.20;42.00
15983;DHT22;14442;50.196;8.096;2024-02-23T09:53:21;23.20;41.90
15983;DHT22;14442;50.196;8.096;2024-02-23T09:55:49;23.20;41.80
15983;DHT22;14442;50.196;8.096;2024-02-23T09:58:17;23.20;41.90
15983;DHT22;14442;50.196;8.096;2024-02-23T10:00:44;23.30;41.80
15983;DHT22;14442;50.196;8.096;2024-02-23T10:03:11;23.30;41.80
15983;DHT22;14442;50.196;8.096;2024-02-23T10:05:38;23.30;41.80
15983;DHT22;14442;50.196;8.096;2024-02-23T10:08:05;23.30;41.70
15983;DHT22;14442;50.196;8.096;2024-02-23T10:10:34;23.40;41.90
15983;DHT22;14442;50.196;8.096;2024-02-23T10:13:01;23.30;41.60
15983;DHT22;14442;50.196;8.096;2024-02-23T10:15:29;23.40;41.70
15983;DHT22;14442;50.196;8.096;2024-02-23T10:17:56;23.40;41.80
15983;DHT22;14442;50.196;8.096;2024-02-23T10:20:23;23.40;41.70
15983;DHT22;14442;50.196;8.096;2024-02-23T10:22:50;23.40;41.80
15983;DHT22;14442;50.196;8.096;2024-02-23T10:25:19;23.40;41.70
15983;DHT22;14442;50.196;8.096;2024-02-23T10:27:47;23.50;41.70
15983;DHT22;14442;50.196;8.096;2024-02-23T10:30:14;23.60;41.70
15983;DHT22;14442;50.196;8.096;2024-02-23T10:32:41;23.60;41.70
15983;DHT22;14442;50.196;8.096;2024-02-23T10:35:11;23.70;41.70
15983;DHT22;14442;50.196;8.096;2024-02-23T10:37:42;23.70;41.90
15983;DHT22;14442;50.196;8.096;2024-02-23T10:40:11;23.70;41.90
15983;DHT22;14442;50.196;8.096;2024-02-23T10:42:40;23.80;41.90
15983;DHT22;14442;50.196;8.096;2024-02-23T10:45:09;23.80;41.90
15983;DHT22;14442;50.196;8.096;2024-02-23T10:47:36;23.80;41.90
15983;DHT22;14442;50.196;8.096;2024-02-23T10:50:04;23.80;41.90
15983;DHT22;14442;50.196;8.096;2024-02-23T10:52:33;23.80;42.10
15983;DHT22;14442;50.196;8.096;2024-02-23T10:55:01;23.90;42.20
15983;DHT22;14442;50.196;8.096;2024-02-23T10:57:30;23.90;42.10
15983;DHT22;14442;50.196;8.096;2024-02-23T10:59:58;23.90;42.10
15983;DHT22;14442;50.196;8.096;2024-02-23T11:02:28;23.90;42.00
15983;DHT22;14442;50.196;8.096;2024-02-23T11:04:59;23.90;42.00
15983;DHT22;14442;50.196;8.096;2024-02-23T11:07:29;23.90;42.10
15983;DHT22;14442;50.196;8.096;2024-02-23T11:09:58;23.90;42.10
15983;DHT22;14442;50.196;8.096;2024-02-23T11:12:26;23.90;42.20
15983;DHT22;14442;50.196;8.096;2024-02-23T11:14:57;23.90;42.20
15983;DHT22;14442;50.196;8.096;2024-02-23T11:17:28;23.90;42.10
15983;DHT22;14442;50.196;8.096;2024-02-23T11:19:56;24.00;42.10
15983;DHT22;14442;50.196;8.096;2024-02-23T11:22:26;24.00;42.00
15983;DHT22;14442;50.196;8.096;2024-02-23T11:25:00;24.10;42.00
15983;DHT22;14442;50.196;8.096;2024-02-23T11:27:30;24.00;42.00
15983;DHT22;14442;50.196;8.096;2024-02-23T11:30:02;24.10;42.00
15983;DHT22;14442;50.196;8.096;2024-02-23T11:32:37;24.10;42.00
15983;DHT22;14442;50.196;8.096;2024-02-23T11:35:06;24.10;42.00
15983;DHT22;14442;50.196;8.096;2024-02-23T11:37:44;24.10;42.00
15983;DHT22;14442;50.196;8.096;2024-02-23T11:40:12;24.10;42.10
15983;DHT22;14442;50.196;8.096;2024-02-23T11:42:41;24.10;42.10
15983;DHT22;14442;50.196;8.096;2024-02-23T11:45:09;24.00;41.90
15983;DHT22;14442;50.196;8.096;2024-02-23T11:47:38;24.10;41.90
15983;DHT22;14442;50.196;8.096;2024-02-23T11:50:07;24.10;41.90
15983;DHT22;14442;50.196;8.096;2024-02-23T11:52:34;24.20;41.90
15983;DHT22;14442;50.196;8.096;2024-02-23T11:55:01;24.20;41.90
15983;DHT22;14442;50.196;8.096;2024-02-23T11:57:30;24.20;41.90
15983;DHT22;14442;50.196;8.096;2024-02-23T11:59:57;24.20;41.90
15983;DHT22;14442;50.196;8.096;2024-02-23T12:02:24;24.20;41.90
15983;DHT22;14442;50.196;8.096;2024-02-23T12:04:52;24.20;42.00
15983;DHT22;14442;50.196;8.096;2024-02-23T12:07:19;24.20;42.00
15983;DHT22;14442;50.196;8.096;2024-02-23T12:09:47;24.10;42.00
15983;DHT22;14442;50.196;8.096;2024-02-23T12:12:14;24.20;42.20
15983;DHT22;14442;50.196;8.096;2024-02-23T12:14:41;24.10;42.00
15983;DHT22;14442;50.196;8.096;2024-02-23T12:17:08;24.20;42.10
15983;DHT22;14442;50.196;8.096;2024-02-23T12:19:37;24.20;42.20
15983;DHT22;14442;50.196;8.096;2024-02-23T12:22:06;24.20;42.10
15983;DHT22;14442;50.196;8.096;2024-02-23T12:24:34;24.10;42.10
15983;DHT22;14442;50.196;8.096;2024-02-23T12:27:01;24.10;42.00
15983;DHT22;14442;50.196;8.096;2024-02-23T12:29:27;24.10;42.00
15983;DHT22;14442;50.196;8.096;2024-02-23T12:32:03;24.10;42.10
15983;DHT22;14442;50.196;8.096;2024-02-23T12:34:29;24.10;42.20
15983;DHT22;14442;50.196;8.096;2024-02-23T12:36:56;24.10;42.10
15983;DHT22;14442;50.196;8.096;2024-02-23T12:39:24;24.10;42.10
15983;DHT22;14442;50.196;8.096;2024-02-23T12:41:52;24.10;42.00
15983;DHT22;14442;50.196;8.096;2024-02-23T12:44:18;24.20;42.10
15983;DHT22;14442;50.196;8.096;2024-02-23T12:46:45;24.20;42.00
15983;DHT22;14442;50.196;8.096;2024-02-23T12:49:12;24.20;42.10
15983;DHT22;14442;50.196;8.096;2024-02-23T12:51:39;24.20;42.10
15983;DHT22;14442;50.196;8.096;2024-02-23T12:54:06;24.10;42.10
15983;DHT22;14442;50.196;8.096;2024-02-23T12:56:34;24.10;42.10
15983;DHT22;14442;50.196;8.096;2024-02-23T12:59:01;24.20;42.30
15983;DHT22;14442;50.196;8.096;2024-02-23T13:01:27;24.10;42.10
15983;DHT22;14442;50.196;8.096;2024-02-23T13:03:55;24.10;42.10
15983;DHT22;14442;50.196;8.096;2024-02-23T13:06:22;24.10;42.10
15983;DHT22;14442;50.196;8.096;2024-02-23T13:08:48;24.20;42.10
15983;DHT22;14442;50.196;8.096;2024-02-23T13:11:15;24.20;42.20
15983;DHT22;14442;50.196;8.096;2024-02-23T13:13:43;24.20;42.20
15983;DHT22;14442;50.196;8.096;2024-02-23T13:16:10;24.30;42.10
15983;DHT22;14442;50.196;8.096;2024-02-23T13:18:40;24.30;42.10
15983;DHT22;14442;50.196;8.096;2024-02-23T13:21:07;24.30;42.20
15983;DHT22;14442;50.196;8.096;2024-02-23T13:23:33;24.30;42.20
15983;DHT22;14442;50.196;8.096;2024-02-23T13:26:01;24.20;42.30
15983;DHT22;14442;50.196;8.096;2024-02-23T13:28:28;24.20;42.30
15983;DHT22;14442;50.196;8.096;2024-02-23T13:30:56;24.20;42.30
15983;DHT22;14442;50.196;8.096;2024-02-23T13:33:23;24.10;42.30
15983;DHT22;14442;50.196;8.096;2024-02-23T13:35:51;24.10;42.20
15983;DHT22;14442;50.196;8.096;2024-02-23T13:38:18;24.10;42.30
15983;DHT22;14442;50.196;8.096;2024-02-23T13:40:45;24.10;42.30
15983;DHT22;14442;50.196;8.096;2024-02-23T13:43:12;24.10;42.30
15983;DHT22;14442;50.196;8.096;2024-02-23T13:45:48;24.10;42.30
15983;DHT22;14442;50.196;8.096;2024-02-23T13:48:17;24.10;42.30
15983;DHT22;14442;50.196;8.096;2024-02-23T13:50:44;24.10;42.30
15983;DHT22;14442;50.196;8.096;2024-02-23T13:53:11;24.10;42.50
15983;DHT22;14442;50.196;8.096;2024-02-23T13:55:38;24.10;42.40
15983;DHT22;14442;50.196;8.096;2024-02-23T13:58:05;24.10;42.50
15983;DHT22;14442;50.196;8.096;2024-02-23T14:00:32;24.10;42.40
15983;DHT22;14442;50.196;8.096;2024-02-23T14:02:59;24.00;42.40
15983;DHT22;14442;50.196;8.096;2024-02-23T14:05:27;23.80;42.40
15983;DHT22;14442;50.196;8.096;2024-02-23T14:07:54;23.70;42.40
15983;DHT22;14442;50.196;8.096;2024-02-23T14:10:20;23.60;41.80
15983;DHT22;14442;50.196;8.096;2024-02-23T14:12:48;23.60;41.80
15983;DHT22;14442;50.196;8.096;2024-02-23T14:15:16;23.70;41.70
15983;DHT22;14442;50.196;8.096;2024-02-23T14:17:43;22.90;40.00
15983;DHT22;14442;50.196;8.096;2024-02-23T14:20:10;22.30;40.60
15983;DHT22;14442;50.196;8.096;2024-02-23T14:22:39;22.20;40.60
15983;DHT22;14442;50.196;8.096;2024-02-23T14:25:06;22.10;39.90
15983;DHT22;14442;50.196;8.096;2024-02-23T14:27:33;21.50;39.00
15983;DHT22;14442;50.196;8.096;2024-02-23T14:30:00;21.30;39.70
15983;DHT22;14442;50.196;8.096;2024-02-23T14:32:26;21.40;40.10
15983;DHT22;14442;50.196;8.096;2024-02-23T14:34:54;21.50;40.10
15983;DHT22;14442;50.196;8.096;2024-02-23T14:37:22;21.20;40.00
15983;DHT22;14442;50.196;8.096;2024-02-23T14:39:51;21.10;40.70
15983;DHT22;14442;50.196;8.096;2024-02-23T14:42:17;21.40;40.70
15983;DHT22;14442;50.196;8.096;2024-02-23T14:44:44;21.50;39.30
15983;DHT22;14442;50.196;8.096;2024-02-23T14:47:11;21.50;39.60
15983;DHT22;14442;50.196;8.096;2024-02-23T14:49:39;21.30;39.70
15983;DHT22;14442;50.196;8.096;2024-02-23T14:52:05;21.20;40.20
15983;DHT22;14442;50.196;8.096;2024-02-23T14:54:33;21.30;40.70
15983;DHT22;14442;50.196;8.096;2024-02-23T14:57:01;21.10;40.30
15983;DHT22;14442;50.196;8.096;2024-02-23T14:59:29;21.00;39.80
15983;DHT22;14442;50.196;8.096;2024-02-23T15:01:56;20.90;40.60
15983;DHT22;14442;50.196;8.096;2024-02-23T15:04:22;20.90;40.40
15983;DHT22;14442;50.196;8.096;2024-02-23T15:06:49;21.10;39.70
15983;DHT22;14442;50.196;8.096;2024-02-23T15:09:16;21.10;40.60
15983;DHT22;14442;50.196;8.096;2024-02-23T15:11:43;21.50;40.20
15983;DHT22;14442;50.196;8.096;2024-02-23T15:14:11;21.40;38.90
15983;DHT22;14442;50.196;8.096;2024-02-23T15:16:40;21.30;38.70
15983;DHT22;14442;50.196;8.096;2024-02-23T15:19:07;21.20;40.00
15983;DHT22;14442;50.196;8.096;2024-02-23T15:21:34;21.00;39.70
15983;DHT22;14442;50.196;8.096;2024-02-23T15:24:05;20.90;39.40
15983;DHT22;14442;50.196;8.096;2024-02-23T15:26:32;21.00;40.30
15983;DHT22;14442;50.196;8.096;2024-02-23T15:28:59;21.00;40.10
15983;DHT22;14442;50.196;8.096;2024-02-23T15:31:30;21.20;40.30